Time;durP1;ratioP1;P1;durP2;ratioP2;P2;SDS_P1;SDS_P2;PMS_P1;PMS_P2;Temp;Humidity;BMP_temperature;BMP_pressure;BME280_temperature;BME280_humidity;BME280_pressure;Samples;Min_cycle;Max_cycle;Signal;HPM_P1;HPM_P2
2024/01/16 00:01:51;;;;;;;7.73;5.80;;;;;;;;;;771284;179;920651;-68
2024/01/16 00:04:17;;;;;;;8.77;6.00;;;;;;;;;;770575;180;917688;-67
2024/01/16 00:06:43;;;;;;;12.80;6.70;;;;;;;;;;780890;180;917270;-67
2024/01/16 00:09:09;;;;;;;7.40;5.53;;;;;;;;;;773947;179;938431;-67
2024/01/16 00:11:34;;;;;;;11.00;6.67;;;;;;;;;;770445;180;919495;-68
2024/01/16 00:14:00;;;;;;;9.27;5.20;;;;;;;;;;770451;180;917987;-67
2024/01/16 00:16:26;;;;;;;7.30;4.87;;;;;;;;;;781132;180;915980;-67
2024/01/16 00:18:52;;;;;;;7.47;4.53;;;;;;;;;;769682;180;916802;-68
2024/01/16 00:21:18;;;;;;;8.45;5.15;;;;;;;;;;771939;179;1016768;-67
2024/01/16 00:23:43;;;;;;;10.67;5.70;;;;;;;;;;777597;180;918093;-67
2024/01/16 00:26:09;;;;;;;11.73;7.17;;;;;;;;;;770133;180;918801;-67
2024/01/16 00:28:35;;;;;;;7.97;4.90;;;;;;;;;;773900;179;918866;-67
2024/01/16 00:31:01;;;;;;;11.87;6.60;;;;;;;;;;772824;180;919243;-67
2024/01/16 00:33:27;;;;;;;9.40;5.90;;;;;;;;;;774654;180;917904;-68
2024/01/16 00:35:53;;;;;;;9.20;5.47;;;;;;;;;;776079;179;918684;-68
2024/01/16 00:38:19;;;;;;;7.63;4.93;;;;;;;;;;765033;181;918790;-67
2024/01/16 00:40:44;;;;;;;8.13;5.53;;;;;;;;;;762536;179;915947;-68
2024/01/16 00:43:10;;;;;;;9.37;5.70;;;;;;;;;;774206;179;914646;-67
2024/01/16 00:45:36;;;;;;;10.57;6.93;;;;;;;;;;771970;177;913548;-67
2024/01/16 00:48:02;;;;;;;9.60;5.43;;;;;;;;;;781486;180;620453;-67
2024/01/16 00:50:29;;;;;;;12.57;6.97;;;;;;;;;;768986;180;916453;-71
2024/01/16 00:52:54;;;;;;;9.00;5.23;;;;;;;;;;768536;180;912370;-68
2024/01/16 00:55:19;;;;;;;8.75;6.60;;;;;;;;;;775058;180;918470;-68
2024/01/16 00:57:45;;;;;;;8.47;5.50;;;;;;;;;;768284;180;919423;-67
2024/01/16 01:00:11;;;;;;;10.30;4.90;;;;;;;;;;768841;179;920133;-68
2024/01/16 01:02:37;;;;;;;9.27;5.70;;;;;;;;;;779912;180;919512;-68
2024/01/16 01:05:03;;;;;;;12.70;5.17;;;;;;;;;;772397;180;919253;-67
2024/01/16 01:07:29;;;;;;;8.57;5.40;;;;;;;;;;767704;180;918750;-67
2024/01/16 01:09:55;;;;;;;10.73;6.70;;;;;;;;;;774693;180;918955;-68
2024/01/16 01:12:22;;;;;;;8.37;4.83;;;;;;;;;;776732;180;917639;-67
2024/01/16 01:14:47;;;;;;;8.70;5.10;;;;;;;;;;771625;180;919485;-67
2024/01/16 01:17:13;;;;;;;11.20;6.35;;;;;;;;;;773445;180;918913;-68
2024/01/16 01:19:39;;;;;;;9.80;5.30;;;;;;;;;;781720;179;816862;-68
2024/01/16 01:22:05;;;;;;;7.40;5.00;;;;;;;;;;772866;180;919211;-67
2024/01/16 01:24:31;;;;;;;9.83;5.40;;;;;;;;;;769931;180;919176;-67
2024/01/16 01:26:57;;;;;;;9.63;5.60;;;;;;;;;;778485;180;1020796;-68
2024/01/16 01:29:22;;;;;;;11.57;6.93;;;;;;;;;;777566;179;926522;-69
2024/01/16 01:31:48;;;;;;;11.47;5.30;;;;;;;;;;770634;179;919731;-68
2024/01/16 01:34:14;;;;;;;11.57;6.30;;;;;;;;;;761311;181;1022589;-68
2024/01/16 01:36:40;;;;;;;8.37;4.93;;;;;;;;;;769464;179;916807;-68
2024/01/16 01:39:06;;;;;;;8.97;4.90;;;;;;;;;;771112;180;920192;-67
2024/01/16 01:41:32;;;;;;;7.00;5.90;;;;;;;;;;774306;180;919426;-67
2024/01/16 01:43:57;;;;;;;10.10;6.03;;;;;;;;;;780132;178;918439;-68
2024/01/16 01:46:23;;;;;;;8.03;5.43;;;;;;;;;;776844;179;918774;-67
2024/01/16 01:48:49;;;;;;;9.00;4.70;;;;;;;;;;772534;179;925328;-67
2024/01/16 01:51:15;;;;;;;8.33;5.53;;;;;;;;;;766055;181;918141;-68
2024/01/16 01:53:41;;;;;;;8.43;5.97;;;;;;;;;;776048;179;920737;-67
2024/01/16 01:56:07;;;;;;;8.20;5.60;;;;;;;;;;774947;180;921058;-67
2024/01/16 01:58:34;;;;;;;9.43;5.10;;;;;;;;;;769336;180;929584;-68
2024/01/16 02:01:00;;;;;;;8.93;5.77;;;;;;;;;;770860;180;916550;-68
2024/01/16 02:03:25;;;;;;;7.60;5.57;;;;;;;;;;772815;179;918790;-67
2024/01/16 02:05:51;;;;;;;12.77;6.43;;;;;;;;;;771272;180;920007;-67
2024/01/16 02:08:18;;;;;;;12.70;6.37;;;;;;;;;;769247;180;917496;-67
2024/01/16 02:10:43;;;;;;;7.17;5.10;;;;;;;;;;775244;179;919321;-67
2024/01/16 02:13:09;;;;;;;7.67;5.00;;;;;;;;;;770263;179;919736;-66
2024/01/16 02:15:35;;;;;;;8.17;5.50;;;;;;;;;;777500;180;919735;-68
2024/01/16 02:18:00;;;;;;;10.03;5.70;;;;;;;;;;769793;179;921027;-67
2024/01/16 02:20:26;;;;;;;6.87;5.07;;;;;;;;;;770458;177;919231;-67
2024/01/16 02:22:52;;;;;;;9.53;5.57;;;;;;;;;;780503;179;917987;-68
2024/01/16 02:25:18;;;;;;;12.40;5.27;;;;;;;;;;773723;179;918887;-67
2024/01/16 02:27:44;;;;;;;10.00;4.00;;;;;;;;;;774804;179;919086;-67
2024/01/16 02:30:10;;;;;;;8.23;5.10;;;;;;;;;;770169;180;1123366;-67
2024/01/16 02:32:36;;;;;;;9.00;5.00;;;;;;;;;;778158;179;919585;-67
2024/01/16 02:35:01;;;;;;;5.37;3.80;;;;;;;;;;770440;180;1010203;-68
2024/01/16 02:37:27;;;;;;;7.82;5.43;;;;;;;;;;769763;180;918831;-69
2024/01/16 02:39:53;;;;;;;8.00;5.10;;;;;;;;;;769323;180;919792;-69
2024/01/16 02:42:19;;;;;;;8.27;4.20;;;;;;;;;;768577;180;918700;-69
2024/01/16 02:44:45;;;;;;;8.50;5.07;;;;;;;;;;774221;180;964670;-69
2024/01/16 02:47:11;;;;;;;11.63;6.00;;;;;;;;;;776356;178;1017138;-69
2024/01/16 02:49:36;;;;;;;10.80;5.10;;;;;;;;;;762634;180;918781;-69
2024/01/16 02:52:03;;;;;;;7.50;5.17;;;;;;;;;;762691;180;920518;-69
2024/01/16 02:54:28;;;;;;;5.47;4.10;;;;;;;;;;773125;179;916400;-69
2024/01/16 02:56:54;;;;;;;7.07;4.90;;;;;;;;;;779657;179;915645;-69
2024/01/16 02:59:20;;;;;;;6.57;4.37;;;;;;;;;;775585;179;916847;-69
2024/01/16 03:01:46;;;;;;;7.73;4.53;;;;;;;;;;777323;178;916003;-69
2024/01/16 03:04:12;;;;;;;6.63;3.70;;;;;;;;;;782111;179;918179;-69
2024/01/16 03:06:38;;;;;;;6.83;4.40;;;;;;;;;;775419;179;921895;-69
2024/01/16 03:09:03;;;;;;;7.70;4.47;;;;;;;;;;778159;180;919249;-69
2024/01/16 03:11:31;;;;;;;9.13;5.20;;;;;;;;;;780966;179;918979;-69
2024/01/16 03:13:55;;;;;;;6.30;4.20;;;;;;;;;;773230;179;918878;-70
2024/01/16 03:16:21;;;;;;;5.97;4.17;;;;;;;;;;772251;179;918851;-69
2024/01/16 03:18:47;;;;;;;6.70;4.10;;;;;;;;;;783212;179;919587;-69
2024/01/16 03:21:13;;;;;;;6.27;4.23;;;;;;;;;;760426;179;919767;-69
2024/01/16 03:23:38;;;;;;;8.97;3.77;;;;;;;;;;766763;180;917977;-69
2024/01/16 03:26:04;;;;;;;6.95;4.07;;;;;;;;;;772385;179;919035;-69
2024/01/16 03:28:30;;;;;;;7.13;4.17;;;;;;;;;;773892;180;944503;-68
2024/01/16 03:30:56;;;;;;;6.20;4.17;;;;;;;;;;772541;180;918797;-68
2024/01/16 03:33:22;;;;;;;5.83;4.07;;;;;;;;;;772953;177;919512;-69
2024/01/16 03:35:48;;;;;;;6.70;4.10;;;;;;;;;;776912;180;922589;-68
2024/01/16 03:38:14;;;;;;;5.20;4.03;;;;;;;;;;758257;181;920705;-69
2024/01/16 03:40:39;;;;;;;7.83;3.80;;;;;;;;;;775725;179;921629;-69
2024/01/16 03:43:05;;;;;;;5.60;3.67;;;;;;;;;;774997;180;916482;-69
2024/01/16 03:45:31;;;;;;;8.17;4.80;;;;;;;;;;771154;180;918844;-69
2024/01/16 03:47:57;;;;;;;8.48;3.87;;;;;;;;;;769305;180;920701;-70
2024/01/16 03:50:23;;;;;;;5.65;4.62;;;;;;;;;;780050;179;916011;-69
2024/01/16 03:52:49;;;;;;;8.37;3.90;;;;;;;;;;776313;178;919169;-69
2024/01/16 03:55:15;;;;;;;5.90;3.83;;;;;;;;;;771825;177;922493;-69
2024/01/16 03:57:42;;;;;;;6.53;4.37;;;;;;;;;;762856;181;919168;-69
2024/01/16 04:00:07;;;;;;;6.67;3.93;;;;;;;;;;778739;180;918389;-68
2024/01/16 04:02:33;;;;;;;5.97;3.83;;;;;;;;;;774241;180;919665;-69
2024/01/16 04:04:59;;;;;;;6.50;3.90;;;;;;;;;;772870;180;919089;-69
2024/01/16 04:07:26;;;;;;;6.00;4.33;;;;;;;;;;779233;179;919009;-70
2024/01/16 04:09:50;;;;;;;5.33;3.23;;;;;;;;;;778234;179;918299;-69
2024/01/16 04:12:16;;;;;;;7.72;3.60;;;;;;;;;;773842;179;918564;-69
2024/01/16 04:14:42;;;;;;;5.70;4.00;;;;;;;;;;775234;180;916524;-68
2024/01/16 04:17:08;;;;;;;9.07;3.90;;;;;;;;;;776663;179;917950;-70
2024/01/16 04:19:34;;;;;;;8.03;4.20;;;;;;;;;;775722;180;919358;-70
2024/01/16 04:22:00;;;;;;;4.97;3.30;;;;;;;;;;775683;179;920910;-69
2024/01/16 04:24:26;;;;;;;5.33;3.83;;;;;;;;;;776549;180;919022;-70
2024/01/16 04:26:51;;;;;;;6.73;3.93;;;;;;;;;;773389;179;1018811;-69
2024/01/16 04:29:17;;;;;;;5.55;3.12;;;;;;;;;;760450;179;918482;-68
2024/01/16 04:31:43;;;;;;;6.00;3.50;;;;;;;;;;781768;179;918239;-69
2024/01/16 04:34:09;;;;;;;6.70;3.63;;;;;;;;;;765560;179;919016;-69
2024/01/16 04:36:35;;;;;;;6.27;3.60;;;;;;;;;;767336;180;919789;-70
2024/01/16 04:39:01;;;;;;;6.90;3.60;;;;;;;;;;781754;180;917445;-69
2024/01/16 04:41:26;;;;;;;7.50;3.62;;;;;;;;;;773718;180;918659;-69
2024/01/16 04:43:52;;;;;;;5.60;3.60;;;;;;;;;;778370;179;773527;-69
2024/01/16 04:46:18;;;;;;;4.83;3.30;;;;;;;;;;771349;180;656634;-69
2024/01/16 04:48:44;;;;;;;4.60;3.10;;;;;;;;;;782133;178;628925;-69
2024/01/16 04:51:10;;;;;;;7.60;4.70;;;;;;;;;;770626;180;694498;-70
2024/01/16 04:53:36;;;;;;;7.30;3.37;;;;;;;;;;776398;180;634790;-69
2024/01/16 04:56:02;;;;;;;6.30;4.23;;;;;;;;;;779226;180;657284;-69
2024/01/16 04:58:27;;;;;;;6.47;3.27;;;;;;;;;;773543;180;1009732;-69
2024/01/16 05:00:53;;;;;;;9.73;4.23;;;;;;;;;;772109;180;642239;-69
2024/01/16 05:03:19;;;;;;;7.20;4.53;;;;;;;;;;772293;181;620985;-70
2024/01/16 05:05:45;;;;;;;6.07;2.90;;;;;;;;;;771835;178;626778;-69
2024/01/16 05:08:11;;;;;;;5.40;3.20;;;;;;;;;;773969;180;633666;-69
2024/01/16 05:10:36;;;;;;;5.00;3.53;;;;;;;;;;768987;181;636681;-69
2024/01/16 05:13:02;;;;;;;5.00;3.60;;;;;;;;;;780599;180;636103;-69
2024/01/16 05:15:28;;;;;;;4.23;3.10;;;;;;;;;;774641;180;919295;-69
2024/01/16 05:17:54;;;;;;;7.80;3.80;;;;;;;;;;771074;179;920083;-69
2024/01/16 05:20:21;;;;;;;4.83;3.40;;;;;;;;;;779535;179;911946;-69
2024/01/16 05:22:46;;;;;;;6.90;3.70;;;;;;;;;;772376;179;911622;-68
2024/01/16 05:25:12;;;;;;;7.70;4.17;;;;;;;;;;780256;179;619012;-69
2024/01/16 05:27:37;;;;;;;8.93;3.57;;;;;;;;;;782345;179;618393;-70
2024/01/16 05:30:04;;;;;;;6.10;3.40;;;;;;;;;;778876;179;627249;-68
2024/01/16 05:32:29;;;;;;;5.10;3.53;;;;;;;;;;780678;179;627385;-69
2024/01/16 05:34:55;;;;;;;4.13;2.77;;;;;;;;;;781931;179;641918;-69
2024/01/16 05:37:21;;;;;;;5.47;3.23;;;;;;;;;;764137;177;913511;-69
2024/01/16 05:39:47;;;;;;;5.53;3.40;;;;;;;;;;771577;180;920896;-68
2024/01/16 05:42:13;;;;;;;7.63;3.87;;;;;;;;;;776595;179;630084;-69
2024/01/16 05:44:39;;;;;;;6.97;3.50;;;;;;;;;;784037;180;619382;-70
2024/01/16 05:47:05;;;;;;;7.60;4.00;;;;;;;;;;781178;179;624013;-69
2024/01/16 05:49:30;;;;;;;6.13;3.53;;;;;;;;;;775959;179;619208;-69
2024/01/16 05:51:56;;;;;;;6.57;4.37;;;;;;;;;;782268;180;613638;-70
2024/01/16 05:54:22;;;;;;;4.80;3.27;;;;;;;;;;773824;180;618963;-70
2024/01/16 05:56:49;;;;;;;6.80;3.57;;;;;;;;;;770545;180;624174;-69
2024/01/16 05:59:14;;;;;;;7.50;3.20;;;;;;;;;;775208;179;626935;-70
2024/01/16 06:01:40;;;;;;;5.00;3.13;;;;;;;;;;780083;180;635187;-69
2024/01/16 06:04:06;;;;;;;7.53;3.20;;;;;;;;;;778544;180;918733;-69
2024/01/16 06:06:31;;;;;;;6.07;3.40;;;;;;;;;;773465;180;918475;-70
2024/01/16 06:08:59;;;;;;;5.40;3.00;;;;;;;;;;777911;180;1021529;-69
2024/01/16 06:11:29;;;;;;;5.90;3.60;;;;;;;;;;775732;180;919441;-69
2024/01/16 06:13:55;;;;;;;4.63;3.33;;;;;;;;;;775800;179;921154;-69
2024/01/16 06:16:20;;;;;;;5.50;3.07;;;;;;;;;;779957;180;918912;-69
2024/01/16 06:18:46;;;;;;;7.27;2.97;;;;;;;;;;775112;180;921362;-69
2024/01/16 06:21:12;;;;;;;6.40;3.97;;;;;;;;;;775289;180;918278;-68
2024/01/16 06:23:38;;;;;;;5.93;4.00;;;;;;;;;;779981;179;1016507;-68
2024/01/16 06:26:04;;;;;;;5.33;3.23;;;;;;;;;;776691;180;914028;-69
2024/01/16 06:28:30;;;;;;;6.87;3.57;;;;;;;;;;768394;180;916065;-69
2024/01/16 06:30:56;;;;;;;6.30;3.00;;;;;;;;;;773247;180;920023;-67
2024/01/16 06:33:21;;;;;;;6.97;4.00;;;;;;;;;;777164;179;918530;-67
2024/01/16 06:35:47;;;;;;;7.00;4.60;;;;;;;;;;772640;178;922109;-67
2024/01/16 06:38:13;;;;;;;12.37;4.60;;;;;;;;;;764743;180;919338;-67
2024/01/16 06:40:39;;;;;;;5.37;3.97;;;;;;;;;;776850;179;919240;-67
2024/01/16 06:43:06;;;;;;;6.63;3.80;;;;;;;;;;773588;180;919239;-67
2024/01/16 06:45:31;;;;;;;5.30;3.30;;;;;;;;;;770791;180;917988;-67
2024/01/16 06:47:56;;;;;;;7.53;3.57;;;;;;;;;;781347;179;918892;-67
2024/01/16 06:50:22;;;;;;;12.33;3.67;;;;;;;;;;775100;179;936239;-67
2024/01/16 06:52:48;;;;;;;4.20;2.97;;;;;;;;;;773161;179;919080;-67
2024/01/16 06:55:14;;;;;;;5.70;3.40;;;;;;;;;;778914;179;919289;-67
2024/01/16 06:57:40;;;;;;;4.27;2.60;;;;;;;;;;774425;180;919645;-66
2024/01/16 07:00:07;;;;;;;3.67;2.57;;;;;;;;;;771016;179;922606;-67
2024/01/16 07:02:32;;;;;;;7.20;3.57;;;;;;;;;;771983;178;919584;-67
2024/01/16 07:04:59;;;;;;;4.60;3.10;;;;;;;;;;780362;180;918776;-67
2024/01/16 07:07:24;;;;;;;4.60;2.43;;;;;;;;;;767158;180;919277;-68
2024/01/16 07:09:50;;;;;;;12.13;3.77;;;;;;;;;;772424;179;918941;-68
2024/01/16 07:12:15;;;;;;;10.43;3.33;;;;;;;;;;771977;180;920914;-67
2024/01/16 07:14:41;;;;;;;4.57;2.80;;;;;;;;;;773854;180;919557;-67
2024/01/16 07:17:07;;;;;;;7.50;4.30;;;;;;;;;;768484;180;920818;-67
2024/01/16 07:19:33;;;;;;;6.90;3.70;;;;;;;;;;780956;179;922306;-67
2024/01/16 07:21:59;;;;;;;6.67;3.70;;;;;;;;;;775463;179;951957;-67
2024/01/16 07:24:25;;;;;;;4.40;3.20;;;;;;;;;;772728;180;919175;-67
2024/01/16 07:26:50;;;;;;;8.20;3.10;;;;;;;;;;770797;180;917770;-67
2024/01/16 07:29:16;;;;;;;6.57;3.03;;;;;;;;;;776866;180;918739;-67
2024/01/16 07:31:42;;;;;;;5.33;4.00;;;;;;;;;;775064;179;919609;-68
2024/01/16 07:34:08;;;;;;;6.43;3.90;;;;;;;;;;774508;178;916331;-67
2024/01/16 07:36:34;;;;;;;5.97;3.03;;;;;;;;;;772530;180;1021281;-67
2024/01/16 07:39:00;;;;;;;7.65;3.50;;;;;;;;;;773157;179;928499;-68
2024/01/16 07:41:26;;;;;;;7.20;4.77;;;;;;;;;;774206;178;1021475;-67
2024/01/16 07:43:51;;;;;;;9.18;4.12;;;;;;;;;;775636;180;918984;-68
2024/01/16 07:46:17;;;;;;;4.60;3.00;;;;;;;;;;770598;180;919953;-67
2024/01/16 07:48:43;;;;;;;6.03;3.60;;;;;;;;;;752702;181;919050;-68
2024/01/16 07:51:09;;;;;;;5.03;3.00;;;;;;;;;;773621;179;918594;-67
2024/01/16 07:53:35;;;;;;;7.73;4.40;;;;;;;;;;776108;179;916418;-68
2024/01/16 07:56:01;;;;;;;7.43;3.70;;;;;;;;;;780422;179;919630;-67
2024/01/16 07:58:26;;;;;;;6.83;3.57;;;;;;;;;;773274;179;921568;-67
2024/01/16 08:00:52;;;;;;;7.12;3.92;;;;;;;;;;776591;180;918890;-67
2024/01/16 08:03:18;;;;;;;6.53;3.67;;;;;;;;;;770757;180;918514;-68
2024/01/16 08:05:44;;;;;;;4.12;3.15;;;;;;;;;;770937;180;915341;-67
2024/01/16 08:08:10;;;;;;;8.73;3.40;;;;;;;;;;776172;179;906314;-67
2024/01/16 08:10:36;;;;;;;4.68;2.83;;;;;;;;;;775024;179;919374;-68
2024/01/16 08:13:01;;;;;;;5.50;3.67;;;;;;;;;;774173;180;919526;-67
2024/01/16 08:15:27;;;;;;;7.80;3.80;;;;;;;;;;781351;179;922013;-67
2024/01/16 08:17:53;;;;;;;8.50;3.87;;;;;;;;;;773856;179;919190;-67
2024/01/16 08:20:19;;;;;;;6.03;2.97;;;;;;;;;;775401;180;919592;-67
2024/01/16 08:22:45;;;;;;;4.67;3.27;;;;;;;;;;767983;179;917906;-68
2024/01/16 08:25:11;;;;;;;9.80;3.20;;;;;;;;;;768444;179;913739;-68
2024/01/16 08:27:37;;;;;;;9.37;3.90;;;;;;;;;;773492;180;919173;-67
2024/01/16 08:30:02;;;;;;;5.27;3.70;;;;;;;;;;774854;180;921290;-68
2024/01/16 08:32:28;;;;;;;8.10;4.40;;;;;;;;;;778833;180;915314;-67
2024/01/16 08:34:54;;;;;;;5.10;3.57;;;;;;;;;;773948;179;921656;-67
2024/01/16 08:37:20;;;;;;;5.37;4.30;;;;;;;;;;762319;180;919852;-67
2024/01/16 08:39:46;;;;;;;5.22;4.45;;;;;;;;;;780745;180;918850;-67
2024/01/16 08:42:11;;;;;;;4.50;2.87;;;;;;;;;;776170;180;919810;-67
2024/01/16 08:44:39;;;;;;;7.70;3.00;;;;;;;;;;775289;179;914592;-68
2024/01/16 08:47:05;;;;;;;5.57;3.33;;;;;;;;;;776564;179;919273;-67
2024/01/16 08:49:30;;;;;;;7.73;3.20;;;;;;;;;;768956;181;919463;-67
2024/01/16 08:51:56;;;;;;;7.60;3.80;;;;;;;;;;771403;179;919150;-67
2024/01/16 08:54:22;;;;;;;5.00;3.03;;;;;;;;;;773264;179;918997;-67
2024/01/16 08:56:47;;;;;;;5.30;2.90;;;;;;;;;;784495;179;918279;-67
2024/01/16 08:59:13;;;;;;;6.65;2.97;;;;;;;;;;778318;179;920929;-67
2024/01/16 09:01:41;;;;;;;6.90;3.93;;;;;;;;;;776517;179;919877;-67
2024/01/16 09:04:05;;;;;;;10.40;3.10;;;;;;;;;;780491;179;920219;-67
2024/01/16 09:06:31;;;;;;;7.47;3.37;;;;;;;;;;772854;179;919333;-67
2024/01/16 09:08:57;;;;;;;5.60;2.77;;;;;;;;;;769879;180;919002;-67
2024/01/16 09:11:22;;;;;;;9.60;3.57;;;;;;;;;;775896;179;919493;-68
2024/01/16 09:13:48;;;;;;;8.00;3.40;;;;;;;;;;772351;178;1225965;-67
2024/01/16 09:16:14;;;;;;;9.57;2.90;;;;;;;;;;773397;179;1019815;-67
2024/01/16 09:18:40;;;;;;;4.57;3.10;;;;;;;;;;773242;179;1036370;-68
2024/01/16 09:21:06;;;;;;;4.10;3.13;;;;;;;;;;782155;179;919037;-68
2024/01/16 09:23:32;;;;;;;6.47;3.53;;;;;;;;;;774720;180;918904;-68
2024/01/16 09:25:58;;;;;;;5.90;3.50;;;;;;;;;;776397;180;919767;-67
2024/01/16 09:28:24;;;;;;;8.20;3.30;;;;;;;;;;782751;180;918362;-67
2024/01/16 09:30:49;;;;;;;8.17;4.07;;;;;;;;;;771279;179;1020908;-67
2024/01/16 09:33:16;;;;;;;4.37;3.30;;;;;;;;;;779846;180;917114;-68
2024/01/16 09:35:41;;;;;;;5.83;3.40;;;;;;;;;;782044;179;918791;-67
2024/01/16 09:38:07;;;;;;;8.03;4.30;;;;;;;;;;775012;180;915626;-68
2024/01/16 09:40:33;;;;;;;6.77;4.27;;;;;;;;;;776216;180;922073;-68
2024/01/16 09:42:59;;;;;;;10.90;4.28;;;;;;;;;;772279;180;919163;-68
2024/01/16 09:45:24;;;;;;;8.23;3.70;;;;;;;;;;772720;180;918474;-68
2024/01/16 09:47:51;;;;;;;8.17;4.17;;;;;;;;;;768622;180;918944;-68
2024/01/16 09:50:17;;;;;;;10.77;5.10;;;;;;;;;;776820;180;882446;-68
2024/01/16 09:52:42;;;;;;;7.70;4.23;;;;;;;;;;774782;180;919315;-67
2024/01/16 09:55:09;;;;;;;6.77;3.73;;;;;;;;;;768620;180;932872;-68
2024/01/16 09:57:34;;;;;;;5.27;3.37;;;;;;;;;;777879;179;914236;-67
2024/01/16 09:59:59;;;;;;;6.20;3.77;;;;;;;;;;779921;180;919120;-68
2024/01/16 10:02:25;;;;;;;6.83;4.27;;;;;;;;;;773572;180;919375;-69
2024/01/16 10:04:51;;;;;;;5.77;3.87;;;;;;;;;;773616;178;937579;-71
2024/01/16 10:07:18;;;;;;;7.27;3.40;;;;;;;;;;780029;179;919436;-68
2024/01/16 10:09:44;;;;;;;9.17;3.80;;;;;;;;;;776245;179;932289;-69
2024/01/16 10:12:10;;;;;;;6.37;3.40;;;;;;;;;;773731;179;919347;-68
2024/01/16 10:14:35;;;;;;;7.43;4.10;;;;;;;;;;775482;179;919473;-69
2024/01/16 10:17:09;;;;;;;5.70;3.50;;;;;;;;;;780431;180;928891;-69
2024/01/16 10:19:32;;;;;;;8.10;4.03;;;;;;;;;;776531;179;919420;-69
2024/01/16 10:22:00;;;;;;;7.63;3.67;;;;;;;;;;774244;179;919614;-69
2024/01/16 10:24:27;;;;;;;5.62;3.80;;;;;;;;;;775136;180;919504;-69
2024/01/16 10:26:59;;;;;;;5.40;3.43;;;;;;;;;;775873;179;918766;-70
2024/01/16 10:29:23;;;;;;;5.53;3.80;;;;;;;;;;770530;179;918092;-70
2024/01/16 10:31:49;;;;;;;9.40;4.70;;;;;;;;;;770543;180;1022098;-69
2024/01/16 10:34:20;;;;;;;8.17;3.80;;;;;;;;;;779552;180;918919;-70
2024/01/16 10:36:45;;;;;;;6.63;4.50;;;;;;;;;;771574;179;919493;-70
2024/01/16 10:39:11;;;;;;;5.33;3.77;;;;;;;;;;772292;180;1126547;-69
2024/01/16 10:41:37;;;;;;;7.77;4.03;;;;;;;;;;772471;179;922227;-70
2024/01/16 10:44:04;;;;;;;6.17;4.27;;;;;;;;;;769886;180;919213;-70
2024/01/16 10:46:30;;;;;;;6.97;3.70;;;;;;;;;;778138;177;919046;-70
2024/01/16 10:48:59;;;;;;;5.23;3.40;;;;;;;;;;775010;179;918160;-70
2024/01/16 10:51:25;;;;;;;6.70;3.70;;;;;;;;;;776989;180;920324;-70
2024/01/16 10:53:50;;;;;;;7.83;3.27;;;;;;;;;;764443;180;914473;-70
2024/01/16 10:56:16;;;;;;;7.30;4.10;;;;;;;;;;775528;179;914218;-70
2024/01/16 10:58:42;;;;;;;8.63;4.83;;;;;;;;;;778729;180;918968;-70
2024/01/16 11:01:12;;;;;;;8.57;4.10;;;;;;;;;;774128;180;921902;-69
2024/01/16 11:03:39;;;;;;;4.65;3.10;;;;;;;;;;774537;180;918197;-70
2024/01/16 11:06:04;;;;;;;6.10;3.33;;;;;;;;;;772563;180;918892;-71
2024/01/16 11:08:32;;;;;;;4.77;2.47;;;;;;;;;;781603;179;919799;-71
2024/01/16 11:10:56;;;;;;;5.07;2.70;;;;;;;;;;771871;180;916871;-69
2024/01/16 11:13:22;;;;;;;5.73;3.57;;;;;;;;;;771404;177;918417;-70
2024/01/16 11:15:48;;;;;;;5.07;2.90;;;;;;;;;;780697;180;919482;-70
2024/01/16 11:18:14;;;;;;;8.30;3.20;;;;;;;;;;772025;178;1227136;-70
2024/01/16 11:20:42;;;;;;;8.73;3.17;;;;;;;;;;776193;179;918711;-70
2024/01/16 11:23:05;;;;;;;7.50;3.50;;;;;;;;;;775966;180;919149;-70
2024/01/16 11:25:32;;;;;;;5.60;3.67;;;;;;;;;;771643;177;919250;-70
2024/01/16 11:27:57;;;;;;;5.90;2.67;;;;;;;;;;777781;179;919465;-70
2024/01/16 11:30:24;;;;;;;4.37;3.22;;;;;;;;;;777195;177;919345;-70
2024/01/16 11:32:50;;;;;;;4.60;2.60;;;;;;;;;;781339;180;918978;-71
2024/01/16 11:35:15;;;;;;;6.93;3.13;;;;;;;;;;774444;180;919212;-71
2024/01/16 11:37:43;;;;;;;7.97;3.07;;;;;;;;;;773083;179;1019253;-71
2024/01/16 11:40:28;;;;;;;4.85;3.12;;;;;;;;;;779225;180;919750;-71
2024/01/16 11:42:53;;;;;;;6.73;2.73;;;;;;;;;;773884;180;920548;-70
2024/01/16 11:45:24;;;;;;;6.60;2.87;;;;;;;;;;768504;180;919142;-70
2024/01/16 11:47:50;;;;;;;7.67;2.90;;;;;;;;;;771508;177;1124279;-71
2024/01/16 11:50:16;;;;;;;5.47;2.20;;;;;;;;;;765144;180;953393;-70
2024/01/16 11:52:42;;;;;;;6.78;3.03;;;;;;;;;;766856;181;919251;-71
2024/01/16 11:55:13;;;;;;;5.00;2.20;;;;;;;;;;775318;179;918705;-71
2024/01/16 11:57:43;;;;;;;3.80;2.30;;;;;;;;;;759911;183;919969;-70
2024/01/16 12:00:12;;;;;;;4.60;2.80;;;;;;;;;;771196;179;920034;-71
2024/01/16 12:02:39;;;;;;;4.80;2.60;;;;;;;;;;779758;180;918533;-70
2024/01/16 12:05:06;;;;;;;6.30;2.83;;;;;;;;;;775601;179;918336;-70
2024/01/16 12:07:31;;;;;;;3.72;2.47;;;;;;;;;;770282;179;931246;-69
2024/01/16 12:10:00;;;;;;;6.17;2.27;;;;;;;;;;778841;179;916109;-70
2024/01/16 12:12:25;;;;;;;5.37;2.53;;;;;;;;;;778628;179;912293;-70
2024/01/16 12:14:53;;;;;;;4.00;2.27;;;;;;;;;;771900;180;920997;-70
2024/01/16 12:17:20;;;;;;;3.28;2.15;;;;;;;;;;768088;180;920118;-70
2024/01/16 12:19:43;;;;;;;3.63;2.20;;;;;;;;;;779441;180;918467;-70
2024/01/16 12:22:09;;;;;;;3.73;2.20;;;;;;;;;;771038;180;917835;-70
2024/01/16 12:24:34;;;;;;;7.40;3.13;;;;;;;;;;776189;180;917237;-70
2024/01/16 12:27:00;;;;;;;3.97;2.33;;;;;;;;;;778869;180;918643;-70
2024/01/16 12:29:26;;;;;;;6.67;2.57;;;;;;;;;;772633;179;1018630;-70
2024/01/16 12:31:52;;;;;;;6.25;2.67;;;;;;;;;;772697;179;1020905;-70
2024/01/16 12:34:18;;;;;;;5.73;2.53;;;;;;;;;;781183;178;617455;-70
2024/01/16 12:36:45;;;;;;;7.20;4.00;;;;;;;;;;771751;180;922146;-70
2024/01/16 12:39:12;;;;;;;4.70;2.47;;;;;;;;;;776042;179;919364;-70
2024/01/16 12:41:37;;;;;;;4.10;2.57;;;;;;;;;;775205;179;1019264;-70
2024/01/16 12:44:03;;;;;;;5.23;2.87;;;;;;;;;;779029;179;919318;-71
2024/01/16 12:46:29;;;;;;;5.13;2.80;;;;;;;;;;773030;180;918372;-70
2024/01/16 12:48:54;;;;;;;5.60;3.20;;;;;;;;;;775594;180;923113;-70
2024/01/16 12:51:21;;;;;;;7.27;3.80;;;;;;;;;;780293;179;917998;-70
2024/01/16 12:53:47;;;;;;;4.40;2.77;;;;;;;;;;775712;179;919179;-71
2024/01/16 12:56:12;;;;;;;7.72;3.30;;;;;;;;;;769972;180;919109;-70
2024/01/16 12:58:40;;;;;;;10.97;3.50;;;;;;;;;;777047;179;918761;-71
2024/01/16 13:01:10;;;;;;;7.50;3.50;;;;;;;;;;773377;179;919491;-71
2024/01/16 13:03:36;;;;;;;5.10;3.30;;;;;;;;;;770992;180;920065;-70
2024/01/16 13:06:04;;;;;;;8.57;3.60;;;;;;;;;;773151;180;919035;-71
2024/01/16 13:08:28;;;;;;;4.70;2.80;;;;;;;;;;780836;179;816299;-71
2024/01/16 13:10:59;;;;;;;7.70;2.60;;;;;;;;;;776023;179;919606;-71
2024/01/16 13:13:25;;;;;;;4.80;2.20;;;;;;;;;;771606;180;919128;-70
2024/01/16 13:15:51;;;;;;;3.47;2.10;;;;;;;;;;768983;180;919265;-71
2024/01/16 13:18:17;;;;;;;5.10;2.30;;;;;;;;;;779312;179;917163;-71
2024/01/16 13:20:43;;;;;;;4.20;2.10;;;;;;;;;;768472;179;926335;-70
2024/01/16 13:23:09;;;;;;;6.40;1.80;;;;;;;;;;774012;179;925099;-71
2024/01/16 13:25:35;;;;;;;5.10;2.50;;;;;;;;;;776476;180;918366;-70
2024/01/16 13:28:00;;;;;;;5.90;3.10;;;;;;;;;;772588;179;919373;-70
2024/01/16 13:30:26;;;;;;;6.27;3.80;;;;;;;;;;769341;180;918101;-71
2024/01/16 13:32:52;;;;;;;9.53;4.03;;;;;;;;;;777668;180;936932;-70
2024/01/16 13:35:18;;;;;;;8.73;2.60;;;;;;;;;;772871;180;921955;-71
2024/01/16 13:37:44;;;;;;;6.82;2.67;;;;;;;;;;775292;180;1020654;-69
2024/01/16 13:40:15;;;;;;;5.07;2.40;;;;;;;;;;779623;177;918380;-72
2024/01/16 13:42:37;;;;;;;6.05;2.53;;;;;;;;;;776694;179;916702;-70
2024/01/16 13:45:04;;;;;;;8.50;4.47;;;;;;;;;;772299;179;918299;-70
2024/01/16 13:47:29;;;;;;;7.23;2.80;;;;;;;;;;776555;179;919172;-71
2024/01/16 13:49:55;;;;;;;7.90;2.40;;;;;;;;;;777749;180;918294;-71
2024/01/16 13:52:21;;;;;;;6.30;2.47;;;;;;;;;;773598;180;919961;-70
2024/01/16 13:54:47;;;;;;;4.00;2.03;;;;;;;;;;775940;179;917984;-70
2024/01/16 13:57:12;;;;;;;3.70;1.83;;;;;;;;;;780030;179;918752;-70
2024/01/16 13:59:38;;;;;;;3.50;2.27;;;;;;;;;;768244;179;915400;-71
2024/01/16 14:02:05;;;;;;;7.22;3.20;;;;;;;;;;771740;179;915025;-70
2024/01/16 14:04:30;;;;;;;5.35;1.70;;;;;;;;;;775113;179;926632;-70
2024/01/16 14:06:56;;;;;;;3.87;2.20;;;;;;;;;;772079;180;920775;-70
2024/01/16 14:09:23;;;;;;;4.90;1.83;;;;;;;;;;772499;179;924497;-71
2024/01/16 14:11:48;;;;;;;3.40;2.17;;;;;;;;;;770429;179;933717;-70
2024/01/16 14:14:14;;;;;;;3.77;1.90;;;;;;;;;;775004;180;919965;-71
2024/01/16 14:16:40;;;;;;;4.97;2.42;;;;;;;;;;772980;179;913768;-70
2024/01/16 14:19:06;;;;;;;6.07;2.95;;;;;;;;;;771114;180;1320294;-70
2024/01/16 14:21:31;;;;;;;6.40;2.63;;;;;;;;;;774269;180;911253;-69